Map

Track Data

SID SEASON NUMBER BASIN SUBBASIN NAME ISO_TIME NATURE LAT LON WMO_WIND WMO_PRES WMO_AGENCY TRACK_TYPE DIST2LAND LANDFALL IFLAG USA_AGENCY USA_ATCF_ID USA_LAT USA_LON USA_RECORD USA_STATUS USA_WIND USA_PRES USA_SSHS USA_R34_NE USA_R34_SE USA_R34_SW USA_R34_NW USA_R50_NE USA_R50_SE USA_R50_SW USA_R50_NW USA_R64_NE USA_R64_SE USA_R64_SW USA_R64_NW USA_POCI USA_ROCI USA_RMW USA_EYE TOKYO_LAT TOKYO_LON TOKYO_GRADE TOKYO_WIND TOKYO_PRES TOKYO_R50_DIR TOKYO_R50_LONG TOKYO_R50_SHORT TOKYO_R30_DIR TOKYO_R30_LONG TOKYO_R30_SHORT TOKYO_LAND CMA_LAT CMA_LON CMA_CAT CMA_WIND CMA_PRES HKO_LAT HKO_LON HKO_CAT HKO_WIND HKO_PRES NEWDELHI_LAT NEWDELHI_LON NEWDELHI_GRADE NEWDELHI_WIND NEWDELHI_PRES NEWDELHI_CI NEWDELHI_DP NEWDELHI_POCI REUNION_LAT REUNION_LON REUNION_TYPE REUNION_WIND REUNION_PRES REUNION_TNUM REUNION_CI REUNION_RMW REUNION_R34_NE REUNION_R34_SE REUNION_R34_SW REUNION_R34_NW REUNION_R50_NE REUNION_R50_SE REUNION_R50_SW REUNION_R50_NW REUNION_R64_NE REUNION_R64_SE REUNION_R64_SW REUNION_R64_NW BOM_LAT BOM_LON BOM_TYPE BOM_WIND BOM_PRES BOM_TNUM BOM_CI BOM_RMW BOM_R34_NE BOM_R34_SE BOM_R34_SW BOM_R34_NW BOM_R50_NE BOM_R50_SE BOM_R50_SW BOM_R50_NW BOM_R64_NE BOM_R64_SE BOM_R64_SW BOM_R64_NW BOM_ROCI BOM_POCI BOM_EYE BOM_POS_METHOD BOM_PRES_METHOD NADI_LAT NADI_LON NADI_CAT NADI_WIND NADI_PRES WELLINGTON_LAT WELLINGTON_LON WELLINGTON_WIND WELLINGTON_PRES DS824_LAT DS824_LON DS824_STAGE DS824_WIND DS824_PRES TD9636_LAT TD9636_LON TD9636_STAGE TD9636_WIND TD9636_PRES TD9635_LAT TD9635_LON TD9635_WIND TD9635_PRES TD9635_ROCI NEUMANN_LAT NEUMANN_LON NEUMANN_CLASS NEUMANN_WIND NEUMANN_PRES MLC_LAT MLC_LON MLC_CLASS MLC_WIND MLC_PRES USA_GUST BOM_GUST BOM_GUST_PER REUNION_GUST REUNION_GUST_PER USA_SEAHGT USA_SEARAD_NE USA_SEARAD_SE USA_SEARAD_SW USA_SEARAD_NW STORM_SPEED STORM_DIR
1898272N16132 1898 46 WP MM NOT_NAMED 1898-09-28 16:00:00 NR 16.0000 132.400 main 857 783 __________O___ -1 16.0000 132.400 7 47 304
1898272N16132 1898 46 WP MM NOT_NAMED 1898-09-28 18:00:00 NR 16.8881 131.050 main 783 695 __________P___ -1 16.8881 131.050 7 46 304
1898272N16132 1898 46 WP MM NOT_NAMED 1898-09-28 21:00:00 NR 18.1548 129.076 main 695 535 __________P___ -1 18.1548 129.076 7 43 304
1898272N16132 1898 46 WP MM NOT_NAMED 1898-09-29 00:00:00 NR 19.2714 127.281 main 535 418 __________P___ -1 19.2714 127.281 7 37 303
1898272N16132 1898 46 WP MM NOT_NAMED 1898-09-29 03:00:00 NR 20.1640 125.800 main 418 397 __________P___ -1 20.1640 125.800 7 32 303
1898272N16132 1898 46 WP MM NOT_NAMED 1898-09-29 04:00:00 NR 20.4000 125.400 main 394 367 __________O___ -1 20.4000 125.400 4 23 302
1898272N16132 1898 46 WP MM NOT_NAMED 1898-09-29 06:00:00 NR 20.7737 124.756 main 375 342 __________P___ -1 20.7737 124.756 4 17 301
1898272N16132 1898 46 WP MM NOT_NAMED 1898-09-29 09:00:00 NR 21.1406 124.107 main 342 294 __________P___ -1 21.1406 124.107 4 11 301
1898272N16132 1898 46 WP MM NOT_NAMED 1898-09-29 12:00:00 NR 21.3631 123.707 main 294 262 __________P___ -1 21.3631 123.707 4 8 301
1898272N16132 1898 46 WP MM NOT_NAMED 1898-09-29 15:00:00 NR 21.5367 123.405 main 262 250 __________P___ -1 21.5367 123.405 4 7 302
1898272N16132 1898 46 WP MM NOT_NAMED 1898-09-29 16:00:00 NR 21.6000 123.300 main 250 216 __________O___ -1 21.6000 123.300 4 10 301
1898272N16132 1898 46 WP MM NOT_NAMED 1898-09-29 18:00:00 NR 21.7839 122.966 main 216 158 __________P___ -1 21.7839 122.966 4 11 301
1898272N16132 1898 46 WP MM NOT_NAMED 1898-09-29 21:00:00 NR 22.0598 122.478 main 158 98 __________P___ -1 22.0598 122.478 4 11 303
1898272N16132 1898 46 WP MM NOT_NAMED 1898-09-30 00:00:00 NR 22.3521 122.005 main 98 38 __________P___ -1 22.3521 122.005 4 11 306
1898272N16132 1898 46 WP MM NOT_NAMED 1898-09-30 03:00:00 NR 22.6797 121.549 main 38 23 __________P___ -1 22.6797 121.549 4 11 309
1898272N16132 1898 46 WP MM NOT_NAMED 1898-09-30 04:00:00 NR 22.8000 121.400 main 23 0 __________O___ -1 22.8000 121.400 4 12 316
1898272N16132 1898 46 WP MM NOT_NAMED 1898-09-30 06:00:00 NR 23.0968 121.106 main 0 0 __________P___ -1 23.0968 121.106 4 12 320
1898272N16132 1898 46 WP MM NOT_NAMED 1898-09-30 09:00:00 NR 23.5809 120.677 main 0 0 __________P___ -1 23.5809 120.677 4 12 321
1898272N16132 1898 46 WP MM NOT_NAMED 1898-09-30 12:00:00 NR 24.0616 120.257 main 10 15 __________P___ -1 24.0616 120.257 4 12 320
1898272N16132 1898 46 WP MM NOT_NAMED 1898-09-30 15:00:00 NR 24.4827 119.840 main 75 75 __________P___ -1 24.4827 119.840 4 11 317
1898272N16132 1898 46 WP MM NOT_NAMED 1898-09-30 16:00:00 NR 24.6000 119.700 main 75 39 __________O___ -1 24.6000 119.700 4 10 309
1898272N16132 1898 46 WP MM NOT_NAMED 1898-09-30 18:00:00 NR 24.7921 119.419 main 39 0 __________P___ -1 24.7921 119.419 4 9 301
1898272N16132 1898 46 WP MM NOT_NAMED 1898-09-30 21:00:00 NR 24.9895 118.996 main 0 0 __________P___ -1 24.9895 118.996 4 8 292
1898272N16132 1898 46 WP MM NOT_NAMED 1898-10-01 00:00:00 NR 25.1077 118.570 main 0 0 __________P___ -1 25.1077 118.570 4 8 284
1898272N16132 1898 46 WP MM NOT_NAMED 1898-10-01 03:00:00 NR 25.1802 118.143 main 0 0 __________P___ -1 25.1802 118.143 4 8 280
1898272N16132 1898 46 WP MM NOT_NAMED 1898-10-01 04:00:00 NR 25.2000 118.000 main 0 __________O___ -1 25.2000 118.000 7 8 279

Digital Typhoon Data and Search

About IBTrACS Database

This database is a web-friendly format of International Best Track Archive for Climate Stewardship (IBTrACS), a global best track data archive curated by NOAA dating back to 1842.

Updated: 2021-12-06